Time;durP1;ratioP1;P1;durP2;ratioP2;P2;SDS_P1;SDS_P2;PMS_P1;PMS_P2;Temp;Humidity;BMP_temperature;BMP_pressure;BME280_temperature;BME280_humidity;BME280_pressure;Samples;Min_cycle;Max_cycle;Signal;HPM_P1;HPM_P2
2022/08/15 00:00:29;;;;;;;;;;;;;;;;;;1040700;28;19909;-75
2022/08/15 00:00:59;;;;;;;;;;;;;;;;;;1040759;28;19963;-75
2022/08/15 00:01:30;;;;;;;;;;;;;;;;;;1040547;28;19975;-75
2022/08/15 00:02:00;;;;;;;;;;;;;;;;;;1041102;28;19913;-75
2022/08/15 00:02:31;;;;;;;;;;;;;;;;;;1040556;28;19917;-75
2022/08/15 00:03:01;;;;;;;;;;;;;;;;;;1040787;28;19913;-75
2022/08/15 00:03:31;;;;;;;;;;;;;;;;;;1040607;28;20315;-75
2022/08/15 00:04:02;;;;;;;;;;;;;;;;;;1040697;28;19998;-75
2022/08/15 00:04:32;;;;;;;;;;;;;;;;;;1040554;28;19909;-75
2022/08/15 00:05:03;;;;;;;;;;;;;;;;;;1040862;28;19917;-75
2022/08/15 00:05:33;;;;;;;;;;;;;;;;;;1040484;28;19909;-75
2022/08/15 00:06:03;;;;;;;;;;;;;;;;;;1040720;28;19913;-75
2022/08/15 00:06:34;;;;;;;;;;;;;;;;;;1040677;28;20377;-75
2022/08/15 00:07:04;;;;;;;;;;;;;;;;;;1040760;28;20011;-75
2022/08/15 00:07:34;;;;;;;;;;;;;;;;;;1040869;28;19909;-75
2022/08/15 00:08:05;;;;;;;;;;;;;;;;;;1041086;28;19916;-75
2022/08/15 00:08:35;;;;;;;;;;;;;;;;;;1040979;28;19913;-75
2022/08/15 00:09:05;;;;;;;;;;;;;;;;;;1041121;28;20355;-75
2022/08/15 00:09:36;;;;;;;;;;;;;;;;;;1040936;28;19909;-75
2022/08/15 00:10:07;;;;;;;;;;;;;;;;;;1040664;28;20011;-75
2022/08/15 00:10:37;;;;;;;;;;;;;;;;;;1040549;28;19909;-75
2022/08/15 00:11:07;;;;;;;;;;;;;;;;;;1040713;28;19963;-75
2022/08/15 00:11:38;;;;;;;;;;;;;;;;;;1040487;28;20003;-75
2022/08/15 00:12:08;;;;;;;;;;;;;;;;;;1040629;28;19944;-75
2022/08/15 00:12:38;;;;;;;;;;;;;;;;;;1040139;28;19913;-75
2022/08/15 00:13:09;;;;;;;;;;;;;;;;;;1040767;28;20015;-75
2022/08/15 00:13:39;;;;;;;;;;;;;;;;;;1048770;28;19915;-75
2022/08/15 00:14:10;;;;;;;;;;;;;;;;;;1046250;28;19909;-75
2022/08/15 00:14:40;;;;;;;;;;;;;;;;;;1044636;28;19909;-75
2022/08/15 00:15:11;;;;;;;;;;;;;;;;;;1044790;28;19917;-75
2022/08/15 00:15:41;;;;;;;;;;;;;;;;;;1040729;28;19916;-75
2022/08/15 00:16:13;;;;;;;;;;;;;;;;;;1040551;28;19909;-75
2022/08/15 00:16:44;;;;;;;;;;;;;;;;;;1040704;28;19916;-75
2022/08/15 00:17:15;;;;;;;;;;;;;;;;;;1040564;28;19917;-75
2022/08/15 00:17:45;;;;;;;;;;;;;;;;;;1040645;28;19913;-75
2022/08/15 00:18:15;;;;;;;;;;;;;;;;;;1040700;28;20019;-75
2022/08/15 00:18:47;;;;;;;;;;;;;;;;;;1040596;28;19916;-75
2022/08/15 00:19:17;;;;;;;;;;;;;;;;;;1040990;28;19909;-75
2022/08/15 00:19:47;;;;;;;;;;;;;;;;;;1040931;28;20395;-75
2022/08/15 00:20:18;;;;;;;;;;;;;;;;;;1041029;28;20004;-75
2022/08/15 00:20:48;;;;;;;;;;;;;;;;;;1040916;28;20281;-75
2022/08/15 00:21:21;;;;;;;;;;;;;;;;;;1040980;28;20285;-75
2022/08/15 00:21:51;;;;;;;;;;;;;;;;;;1040963;28;19909;-75
2022/08/15 00:22:21;;;;;;;;;;;;;;;;;;1040991;28;20345;-75
2022/08/15 00:22:52;;;;;;;;;;;;;;;;;;1040795;28;19913;-75
2022/08/15 00:23:22;;;;;;;;;;;;;;;;;;1040634;28;19964;-75
2022/08/15 00:23:53;;;;;;;;;;;;;;;;;;1040409;28;19917;-75
2022/08/15 00:24:24;;;;;;;;;;;;;;;;;;1040744;28;19909;-75
2022/08/15 00:24:54;;;;;;;;;;;;;;;;;;1040614;28;19943;-75
2022/08/15 00:25:25;;;;;;;;;;;;;;;;;;1040525;28;19995;-75
2022/08/15 00:25:55;;;;;;;;;;;;;;;;;;1040629;28;19942;-75
2022/08/15 00:26:25;;;;;;;;;;;;;;;;;;1040432;28;19959;-75
2022/08/15 00:26:56;;;;;;;;;;;;;;;;;;1040493;28;20439;-75
2022/08/15 00:27:26;;;;;;;;;;;;;;;;;;1036457;28;19956;-75
2022/08/15 00:27:56;;;;;;;;;;;;;;;;;;1036434;28;19914;-75
2022/08/15 00:28:27;;;;;;;;;;;;;;;;;;1036496;28;19910;-75
2022/08/15 00:28:58;;;;;;;;;;;;;;;;;;1032365;28;19914;-75
2022/08/15 00:29:28;;;;;;;;;;;;;;;;;;1036597;28;19917;-75
2022/08/15 00:30:02;;;;;;;;;;;;;;;;;;1040707;28;20357;-75
2022/08/15 00:30:33;;;;;;;;;;;;;;;;;;1036798;28;19953;-75
2022/08/15 00:31:03;;;;;;;;;;;;;;;;;;1036212;28;19917;-75
2022/08/15 00:31:35;;;;;;;;;;;;;;;;;;1036341;28;19915;-75
2022/08/15 00:32:05;;;;;;;;;;;;;;;;;;1036766;28;20405;-76
2022/08/15 00:32:36;;;;;;;;;;;;;;;;;;1036309;28;19913;-76
2022/08/15 00:33:07;;;;;;;;;;;;;;;;;;1036876;28;20382;-76
2022/08/15 00:33:37;;;;;;;;;;;;;;;;;;1040497;28;19909;-76
2022/08/15 00:34:07;;;;;;;;;;;;;;;;;;1040665;28;19933;-76
2022/08/15 00:34:37;;;;;;;;;;;;;;;;;;1040932;28;19909;-76
2022/08/15 00:35:35;;;;;;;;;;;;;;;;;;1040957;28;19909;-76
2022/08/15 00:35:58;;;;;;;;;;;;;;;;;;1040655;28;20438;-76
2022/08/15 00:36:30;;;;;;;;;;;;;;;;;;1040486;28;19940;-76
2022/08/15 00:37:00;;;;;;;;;;;;;;;;;;1040448;28;19920;-76
2022/08/15 00:37:31;;;;;;;;;;;;;;;;;;1040463;28;19917;-76
2022/08/15 00:38:01;;;;;;;;;;;;;;;;;;1040524;28;19936;-75
2022/08/15 00:38:31;;;;;;;;;;;;;;;;;;1040410;28;20432;-75
2022/08/15 00:39:02;;;;;;;;;;;;;;;;;;1040620;28;20007;-75
2022/08/15 00:39:32;;;;;;;;;;;;;;;;;;1040537;28;19912;-75
2022/08/15 00:40:02;;;;;;;;;;;;;;;;;;1040506;28;19920;-75
2022/08/15 00:41:41;;;;;;;;;;;;;;;;;;1035095;28;20337;-75
2022/08/15 00:42:12;;;;;;;;;;;;;;;;;;1040925;28;20003;-75
2022/08/15 00:42:42;;;;;;;;;;;;;;;;;;1040824;28;19913;-75
2022/08/15 00:43:13;;;;;;;;;;;;;;;;;;1040923;28;20042;-75
2022/08/15 00:43:44;;;;;;;;;;;;;;;;;;1040348;28;19909;-75
2022/08/15 00:44:14;;;;;;;;;;;;;;;;;;1040498;28;19959;-75
2022/08/15 00:44:45;;;;;;;;;;;;;;;;;;1040533;28;19913;-75
2022/08/15 00:45:15;;;;;;;;;;;;;;;;;;1040393;28;19956;-76
2022/08/15 00:45:45;;;;;;;;;;;;;;;;;;1036378;28;19971;-76
2022/08/15 00:46:16;;;;;;;;;;;;;;;;;;1036298;28;20364;-76
2022/08/15 00:46:46;;;;;;;;;;;;;;;;;;1036479;28;19956;-76
2022/08/15 00:47:16;;;;;;;;;;;;;;;;;;1036487;28;20309;-76
2022/08/15 00:48:43;;;;;;;;;;;;;;;;;;1033256;28;19917;-76
2022/08/15 00:49:13;;;;;;;;;;;;;;;;;;1036421;28;19909;-76
2022/08/15 00:49:44;;;;;;;;;;;;;;;;;;1039862;28;20440;-76
2022/08/15 00:50:14;;;;;;;;;;;;;;;;;;1040573;28;19909;-76
2022/08/15 00:50:44;;;;;;;;;;;;;;;;;;1036256;28;19996;-76
2022/08/15 00:51:14;;;;;;;;;;;;;;;;;;1040534;28;19913;-76
2022/08/15 00:51:45;;;;;;;;;;;;;;;;;;1040441;28;19927;-76
2022/08/15 00:52:15;;;;;;;;;;;;;;;;;;1036238;28;19913;-76
2022/08/15 00:52:45;;;;;;;;;;;;;;;;;;1036356;28;20358;-76
2022/08/15 00:53:16;;;;;;;;;;;;;;;;;;1036385;28;19961;-76
2022/08/15 00:53:46;;;;;;;;;;;;;;;;;;1036501;28;19910;-76
2022/08/15 00:54:17;;;;;;;;;;;;;;;;;;1040517;28;19913;-76
2022/08/15 00:54:47;;;;;;;;;;;;;;;;;;1040456;28;19915;-76
2022/08/15 00:55:18;;;;;;;;;;;;;;;;;;1040643;28;19983;-76
2022/08/15 00:55:48;;;;;;;;;;;;;;;;;;1040449;28;19909;-76
2022/08/15 00:56:18;;;;;;;;;;;;;;;;;;1040575;28;19909;-76
2022/08/15 00:56:48;;;;;;;;;;;;;;;;;;1040045;28;20502;-76
2022/08/15 00:57:19;;;;;;;;;;;;;;;;;;1040498;28;19925;-76
2022/08/15 00:57:49;;;;;;;;;;;;;;;;;;1040388;28;19992;-76
2022/08/15 00:58:19;;;;;;;;;;;;;;;;;;1040517;28;19913;-76
2022/08/15 00:58:50;;;;;;;;;;;;;;;;;;1036201;28;20259;-76
2022/08/15 00:59:20;;;;;;;;;;;;;;;;;;1036477;28;19956;-76
2022/08/15 00:59:51;;;;;;;;;;;;;;;;;;1040403;28;19955;-76
2022/08/15 01:00:21;;;;;;;;;;;;;;;;;;1036191;28;19910;-76
2022/08/15 01:00:51;;;;;;;;;;;;;;;;;;1036259;28;19910;-76
2022/08/15 01:01:22;;;;;;;;;;;;;;;;;;1036290;28;20358;-76
2022/08/15 01:01:52;;;;;;;;;;;;;;;;;;1036171;28;19909;-76
2022/08/15 01:02:22;;;;;;;;;;;;;;;;;;1036346;28;20071;-76
2022/08/15 01:02:53;;;;;;;;;;;;;;;;;;1040321;28;19916;-76
2022/08/15 01:03:24;;;;;;;;;;;;;;;;;;1036320;28;19944;-76
2022/08/15 01:03:54;;;;;;;;;;;;;;;;;;1032163;28;19939;-76
2022/08/15 01:04:25;;;;;;;;;;;;;;;;;;1032492;28;20259;-76
2022/08/15 01:04:55;;;;;;;;;;;;;;;;;;1032454;28;19913;-76
2022/08/15 01:05:26;;;;;;;;;;;;;;;;;;1032251;28;20394;-76
2022/08/15 01:05:56;;;;;;;;;;;;;;;;;;1036132;28;19918;-76
2022/08/15 01:06:27;;;;;;;;;;;;;;;;;;1036261;28;19917;-76
2022/08/15 01:06:58;;;;;;;;;;;;;;;;;;1040525;28;19913;-76
2022/08/15 01:07:28;;;;;;;;;;;;;;;;;;1040279;28;19968;-76
2022/08/15 01:07:58;;;;;;;;;;;;;;;;;;1040483;28;19913;-76
2022/08/15 01:08:29;;;;;;;;;;;;;;;;;;1040279;28;20388;-76
2022/08/15 01:09:01;;;;;;;;;;;;;;;;;;1036351;28;19914;-76
2022/08/15 01:09:31;;;;;;;;;;;;;;;;;;1036213;28;19917;-76
2022/08/15 01:10:01;;;;;;;;;;;;;;;;;;1036501;28;20381;-76
2022/08/15 01:10:31;;;;;;;;;;;;;;;;;;1036405;28;20012;-76
2022/08/15 01:11:02;;;;;;;;;;;;;;;;;;1036160;28;19928;-76
2022/08/15 01:11:32;;;;;;;;;;;;;;;;;;1036172;28;19914;-76
2022/08/15 01:12:03;;;;;;;;;;;;;;;;;;1036506;28;19928;-76
2022/08/15 01:12:33;;;;;;;;;;;;;;;;;;1036205;28;19949;-76
2022/08/15 01:13:03;;;;;;;;;;;;;;;;;;1040372;28;20377;-76
2022/08/15 01:13:34;;;;;;;;;;;;;;;;;;1040129;28;20403;-76
2022/08/15 01:14:07;;;;;;;;;;;;;;;;;;1036369;28;19910;-76
2022/08/15 01:14:37;;;;;;;;;;;;;;;;;;1036199;28;20405;-76
2022/08/15 01:15:08;;;;;;;;;;;;;;;;;;1036420;28;19909;-76
2022/08/15 01:15:38;;;;;;;;;;;;;;;;;;1036684;28;19913;-76
2022/08/15 01:16:08;;;;;;;;;;;;;;;;;;1036312;28;19909;-76
2022/08/15 01:16:39;;;;;;;;;;;;;;;;;;1040397;28;20353;-76
2022/08/15 01:17:09;;;;;;;;;;;;;;;;;;1040465;28;19909;-76
2022/08/15 01:17:39;;;;;;;;;;;;;;;;;;1040391;28;19909;-76
2022/08/15 01:18:10;;;;;;;;;;;;;;;;;;1040529;28;19916;-76
2022/08/15 01:18:40;;;;;;;;;;;;;;;;;;1040339;28;19956;-76
2022/08/15 01:19:10;;;;;;;;;;;;;;;;;;1040411;28;19910;-76
2022/08/15 01:19:40;;;;;;;;;;;;;;;;;;1040367;28;20416;-76
2022/08/15 01:20:11;;;;;;;;;;;;;;;;;;1040398;28;19923;-76
2022/08/15 01:20:41;;;;;;;;;;;;;;;;;;1040358;28;20435;-76
2022/08/15 01:21:12;;;;;;;;;;;;;;;;;;1040404;28;19909;-78
2022/08/15 01:21:42;;;;;;;;;;;;;;;;;;1040337;28;19909;-77
2022/08/15 01:22:12;;;;;;;;;;;;;;;;;;1040808;28;20027;-77
2022/08/15 01:22:42;;;;;;;;;;;;;;;;;;1039478;28;20003;-76
2022/08/15 01:23:13;;;;;;;;;;;;;;;;;;1033880;28;20019;-76
2022/08/15 01:23:44;;;;;;;;;;;;;;;;;;1035332;28;19944;-76
2022/08/15 01:24:14;;;;;;;;;;;;;;;;;;1035207;28;20362;-76
2022/08/15 01:24:44;;;;;;;;;;;;;;;;;;1039220;28;19956;-76
2022/08/15 01:25:15;;;;;;;;;;;;;;;;;;1036638;28;19913;-76
2022/08/15 01:25:45;;;;;;;;;;;;;;;;;;1036143;28;19915;-76
2022/08/15 01:26:15;;;;;;;;;;;;;;;;;;1037979;28;19917;-76
2022/08/15 01:26:46;;;;;;;;;;;;;;;;;;1040251;28;19916;-76
2022/08/15 01:27:16;;;;;;;;;;;;;;;;;;1038729;28;19916;-76
2022/08/15 01:27:47;;;;;;;;;;;;;;;;;;1040366;28;20323;-76
2022/08/15 01:28:17;;;;;;;;;;;;;;;;;;1039718;28;19909;-76
2022/08/15 01:28:48;;;;;;;;;;;;;;;;;;1035549;28;20532;-76
2022/08/15 01:29:18;;;;;;;;;;;;;;;;;;1038941;28;20332;-78
2022/08/15 01:29:49;;;;;;;;;;;;;;;;;;1039853;28;20004;-78
2022/08/15 01:30:19;;;;;;;;;;;;;;;;;;1038464;28;19909;-77
2022/08/15 01:30:49;;;;;;;;;;;;;;;;;;1040118;28;19909;-77
2022/08/15 01:31:20;;;;;;;;;;;;;;;;;;1040806;28;19925;-77
2022/08/15 01:31:50;;;;;;;;;;;;;;;;;;1040353;28;20434;-77
2022/08/15 01:32:20;;;;;;;;;;;;;;;;;;1043431;28;19924;-77
2022/08/15 01:32:51;;;;;;;;;;;;;;;;;;1038283;28;19921;-77
2022/08/15 01:33:21;;;;;;;;;;;;;;;;;;1038981;28;19921;-77
2022/08/15 01:33:51;;;;;;;;;;;;;;;;;;1037160;28;19917;-77
2022/08/15 01:34:22;;;;;;;;;;;;;;;;;;1037667;28;19980;-77
2022/08/15 01:34:52;;;;;;;;;;;;;;;;;;1036443;28;19910;-77
2022/08/15 01:35:22;;;;;;;;;;;;;;;;;;1036623;28;20324;-77
2022/08/15 01:35:54;;;;;;;;;;;;;;;;;;1036053;28;19909;-77
2022/08/15 01:36:24;;;;;;;;;;;;;;;;;;1037944;28;20385;-77
2022/08/15 01:36:56;;;;;;;;;;;;;;;;;;1040265;28;19913;-77
2022/08/15 01:37:26;;;;;;;;;;;;;;;;;;1039442;28;19917;-77
2022/08/15 01:37:57;;;;;;;;;;;;;;;;;;1040622;28;19913;-77
2022/08/15 01:38:27;;;;;;;;;;;;;;;;;;1038998;28;19960;-77
2022/08/15 01:38:57;;;;;;;;;;;;;;;;;;1039726;28;19983;-77
2022/08/15 01:39:27;;;;;;;;;;;;;;;;;;1038094;28;19924;-77
2022/08/15 01:39:58;;;;;;;;;;;;;;;;;;1039953;28;20016;-77
2022/08/15 01:40:28;;;;;;;;;;;;;;;;;;1038349;28;19948;-76
2022/08/15 01:40:59;;;;;;;;;;;;;;;;;;1039079;28;19913;-76
2022/08/15 01:41:29;;;;;;;;;;;;;;;;;;1039327;28;19916;-77
2022/08/15 01:41:59;;;;;;;;;;;;;;;;;;1040197;28;20385;-77
2022/08/15 01:42:30;;;;;;;;;;;;;;;;;;1036194;28;19918;-77
2022/08/15 01:43:00;;;;;;;;;;;;;;;;;;1036124;28;20345;-77
2022/08/15 01:43:30;;;;;;;;;;;;;;;;;;1039513;28;20410;-77
2022/08/15 01:44:01;;;;;;;;;;;;;;;;;;1039563;28;19917;-77
2022/08/15 01:44:31;;;;;;;;;;;;;;;;;;1036466;28;19913;-77
2022/08/15 01:45:01;;;;;;;;;;;;;;;;;;1035706;28;19940;-77
2022/08/15 01:45:34;;;;;;;;;;;;;;;;;;1036393;28;19921;-77
2022/08/15 01:46:04;;;;;;;;;;;;;;;;;;1036191;28;20336;-77
2022/08/15 01:46:35;;;;;;;;;;;;;;;;;;1036495;28;19940;-76
2022/08/15 01:47:05;;;;;;;;;;;;;;;;;;1036261;28;19910;-76
2022/08/15 01:47:36;;;;;;;;;;;;;;;;;;1032032;28;20394;-77
2022/08/15 01:48:06;;;;;;;;;;;;;;;;;;1032813;28;20004;-77
2022/08/15 01:48:36;;;;;;;;;;;;;;;;;;1027703;28;19914;-77
2022/08/15 01:49:07;;;;;;;;;;;;;;;;;;1028217;28;19910;-77
2022/08/15 01:49:38;;;;;;;;;;;;;;;;;;1036161;28;19918;-77
2022/08/15 01:50:08;;;;;;;;;;;;;;;;;;1036500;28;19909;-77
2022/08/15 01:50:39;;;;;;;;;;;;;;;;;;1040145;28;19916;-77
2022/08/15 01:51:10;;;;;;;;;;;;;;;;;;1039181;28;19936;-77
2022/08/15 01:51:40;;;;;;;;;;;;;;;;;;1040129;28;19951;-76
2022/08/15 01:52:11;;;;;;;;;;;;;;;;;;1038673;28;19917;-76
2022/08/15 01:52:41;;;;;;;;;;;;;;;;;;1031731;28;19925;-76
2022/08/15 01:53:11;;;;;;;;;;;;;;;;;;1034488;28;19975;-77
2022/08/15 01:53:42;;;;;;;;;;;;;;;;;;1042929;28;19908;-77
2022/08/15 01:54:12;;;;;;;;;;;;;;;;;;1044019;28;20003;-77
2022/08/15 01:54:42;;;;;;;;;;;;;;;;;;1040047;28;20258;-77
2022/08/15 01:55:13;;;;;;;;;;;;;;;;;;1038969;28;20357;-77
2022/08/15 01:55:44;;;;;;;;;;;;;;;;;;1040023;28;19909;-76
2022/08/15 01:56:14;;;;;;;;;;;;;;;;;;1039235;28;20055;-78
2022/08/15 01:56:45;;;;;;;;;;;;;;;;;;1039859;28;20012;-78
2022/08/15 01:57:15;;;;;;;;;;;;;;;;;;1039035;28;19909;-77
2022/08/15 01:57:45;;;;;;;;;;;;;;;;;;1040180;28;19909;-77
2022/08/15 01:58:16;;;;;;;;;;;;;;;;;;1038587;28;19909;-77
2022/08/15 01:58:46;;;;;;;;;;;;;;;;;;1040020;28;19917;-77
2022/08/15 01:59:16;;;;;;;;;;;;;;;;;;1039648;28;20284;-77
2022/08/15 01:59:47;;;;;;;;;;;;;;;;;;1040523;28;20323;-76
2022/08/15 02:00:17;;;;;;;;;;;;;;;;;;1038866;28;19914;-77
2022/08/15 02:00:47;;;;;;;;;;;;;;;;;;1037444;28;19975;-77
2022/08/15 02:01:18;;;;;;;;;;;;;;;;;;1038698;28;20362;-76
2022/08/15 02:01:48;;;;;;;;;;;;;;;;;;1039983;28;19945;-76
2022/08/15 02:02:18;;;;;;;;;;;;;;;;;;1039296;28;19916;-76
2022/08/15 02:02:49;;;;;;;;;;;;;;;;;;1040152;28;19909;-76
2022/08/15 02:03:19;;;;;;;;;;;;;;;;;;1037619;28;19925;-76
2022/08/15 02:03:49;;;;;;;;;;;;;;;;;;1037390;28;19997;-76
2022/08/15 02:04:20;;;;;;;;;;;;;;;;;;1038277;28;19921;-76
2022/08/15 02:04:50;;;;;;;;;;;;;;;;;;1039946;28;19917;-76
2022/08/15 02:05:20;;;;;;;;;;;;;;;;;;1039124;28;20505;-76
2022/08/15 02:05:51;;;;;;;;;;;;;;;;;;1036450;28;19925;-76
2022/08/15 02:06:21;;;;;;;;;;;;;;;;;;1036577;28;20401;-76
2022/08/15 02:06:52;;;;;;;;;;;;;;;;;;1036184;28;20324;-76
2022/08/15 02:07:25;;;;;;;;;;;;;;;;;;1034226;28;19964;-76
2022/08/15 02:07:56;;;;;;;;;;;;;;;;;;1036045;28;19913;-76
2022/08/15 02:08:26;;;;;;;;;;;;;;;;;;1034321;28;20004;-76
2022/08/15 02:08:57;;;;;;;;;;;;;;;;;;1035790;28;19913;-76
2022/08/15 02:09:27;;;;;;;;;;;;;;;;;;1038974;28;19913;-76
2022/08/15 02:09:57;;;;;;;;;;;;;;;;;;1037448;28;19920;-76
2022/08/15 02:10:28;;;;;;;;;;;;;;;;;;1041635;28;20345;-76
2022/08/15 02:10:58;;;;;;;;;;;;;;;;;;1038695;28;19917;-76
2022/08/15 02:11:29;;;;;;;;;;;;;;;;;;1040243;28;20404;-76
2022/08/15 02:12:00;;;;;;;;;;;;;;;;;;1040282;28;19959;-76
2022/08/15 02:12:30;;;;;;;;;;;;;;;;;;1043450;28;19998;-76
2022/08/15 02:13:01;;;;;;;;;;;;;;;;;;1044076;28;19916;-76
2022/08/15 02:13:31;;;;;;;;;;;;;;;;;;1040348;28;19921;-76
2022/08/15 02:14:01;;;;;;;;;;;;;;;;;;1036264;28;19913;-76
2022/08/15 02:14:33;;;;;;;;;;;;;;;;;;1033266;28;19917;-76
2022/08/15 02:15:03;;;;;;;;;;;;;;;;;;1038735;28;19921;-76
2022/08/15 02:15:33;;;;;;;;;;;;;;;;;;1033915;28;20534;-76
2022/08/15 02:16:04;;;;;;;;;;;;;;;;;;1039285;28;20266;-76
2022/08/15 02:16:35;;;;;;;;;;;;;;;;;;1035427;28;19918;-76
2022/08/15 02:17:05;;;;;;;;;;;;;;;;;;1031180;28;19909;-76
2022/08/15 02:17:36;;;;;;;;;;;;;;;;;;1035955;28;20344;-76
2022/08/15 02:18:06;;;;;;;;;;;;;;;;;;1034205;28;19916;-76
2022/08/15 02:18:36;;;;;;;;;;;;;;;;;;1039107;28;19932;-76
2022/08/15 02:19:07;;;;;;;;;;;;;;;;;;1039547;28;20015;-76
2022/08/15 02:19:38;;;;;;;;;;;;;;;;;;1042073;28;19958;-76
2022/08/15 02:20:08;;;;;;;;;;;;;;;;;;1040367;28;19959;-76
2022/08/15 02:20:38;;;;;;;;;;;;;;;;;;1037208;28;19917;-76
2022/08/15 02:21:09;;;;;;;;;;;;;;;;;;1037798;28;20008;-76
2022/08/15 02:21:39;;;;;;;;;;;;;;;;;;1038238;28;20312;-76
2022/08/15 02:22:09;;;;;;;;;;;;;;;;;;1039962;28;19912;-76
2022/08/15 02:22:40;;;;;;;;;;;;;;;;;;1041843;28;19913;-76
2022/08/15 02:23:10;;;;;;;;;;;;;;;;;;1040836;28;20340;-76
2022/08/15 02:23:40;;;;;;;;;;;;;;;;;;1041091;28;19913;-76
2022/08/15 02:24:10;;;;;;;;;;;;;;;;;;1042231;28;19928;-76
2022/08/15 02:24:41;;;;;;;;;;;;;;;;;;1041413;28;20282;-76
2022/08/15 02:25:11;;;;;;;;;;;;;;;;;;1038972;28;20377;-76
2022/08/15 02:25:41;;;;;;;;;;;;;;;;;;1041860;28;19913;-76
2022/08/15 02:26:12;;;;;;;;;;;;;;;;;;1041406;28;19959;-76
2022/08/15 02:26:42;;;;;;;;;;;;;;;;;;1042024;28;20262;-76
2022/08/15 02:27:12;;;;;;;;;;;;;;;;;;1039706;28;19913;-76
2022/08/15 02:27:43;;;;;;;;;;;;;;;;;;1039261;28;20286;-76
2022/08/15 02:28:13;;;;;;;;;;;;;;;;;;1038969;28;19925;-76
2022/08/15 02:28:44;;;;;;;;;;;;;;;;;;1043189;28;20008;-76
2022/08/15 02:29:14;;;;;;;;;;;;;;;;;;1039439;28;19913;-76
2022/08/15 02:29:44;;;;;;;;;;;;;;;;;;1040611;28;19913;-76
2022/08/15 02:30:15;;;;;;;;;;;;;;;;;;1039978;28;19913;-76
2022/08/15 02:30:45;;;;;;;;;;;;;;;;;;1041340;28;19912;-76
2022/08/15 02:31:16;;;;;;;;;;;;;;;;;;1038706;28;19916;-76
2022/08/15 02:31:46;;;;;;;;;;;;;;;;;;1040191;28;19921;-76
2022/08/15 02:32:17;;;;;;;;;;;;;;;;;;1035465;28;19917;-76
2022/08/15 02:32:47;;;;;;;;;;;;;;;;;;1037003;28;19928;-76
2022/08/15 02:33:17;;;;;;;;;;;;;;;;;;1040115;28;19952;-76
2022/08/15 02:33:51;;;;;;;;;;;;;;;;;;1040734;28;20367;-76
2022/08/15 02:34:21;;;;;;;;;;;;;;;;;;1042313;28;19921;-76
2022/08/15 02:34:52;;;;;;;;;;;;;;;;;;1038701;28;19920;-76
2022/08/15 02:35:22;;;;;;;;;;;;;;;;;;1037667;28;19939;-76
2022/08/15 02:35:52;;;;;;;;;;;;;;;;;;1039412;28;20448;-76
2022/08/15 02:36:23;;;;;;;;;;;;;;;;;;1042064;28;19921;-76
2022/08/15 02:36:53;;;;;;;;;;;;;;;;;;1039795;28;19925;-77
2022/08/15 02:37:24;;;;;;;;;;;;;;;;;;1042342;28;20389;-77
2022/08/15 02:37:54;;;;;;;;;;;;;;;;;;1042920;28;19917;-76
2022/08/15 02:38:25;;;;;;;;;;;;;;;;;;1042129;28;20377;-77
2022/08/15 02:38:58;;;;;;;;;;;;;;;;;;1042713;28;20370;-77
2022/08/15 02:39:28;;;;;;;;;;;;;;;;;;1039017;28;20344;-76
2022/08/15 02:39:59;;;;;;;;;;;;;;;;;;1042624;28;19913;-76
2022/08/15 02:40:29;;;;;;;;;;;;;;;;;;1042167;28;19917;-76
2022/08/15 02:41:00;;;;;;;;;;;;;;;;;;1042182;28;19967;-76
2022/08/15 02:41:31;;;;;;;;;;;;;;;;;;1040781;28;19917;-76
2022/08/15 02:42:02;;;;;;;;;;;;;;;;;;1042242;28;19913;-76
2022/08/15 02:42:32;;;;;;;;;;;;;;;;;;1042562;28;20000;-76
2022/08/15 02:43:03;;;;;;;;;;;;;;;;;;1038029;28;19913;-76
2022/08/15 02:43:33;;;;;;;;;;;;;;;;;;1041454;28;19913;-76
2022/08/15 02:44:03;;;;;;;;;;;;;;;;;;1042362;28;19916;-76
2022/08/15 02:44:34;;;;;;;;;;;;;;;;;;1042888;28;20365;-76
2022/08/15 02:45:04;;;;;;;;;;;;;;;;;;1041499;28;20329;-76
2022/08/15 02:45:37;;;;;;;;;;;;;;;;;;1042921;28;19912;-76
2022/08/15 02:46:07;;;;;;;;;;;;;;;;;;1043181;28;20364;-76
2022/08/15 02:46:38;;;;;;;;;;;;;;;;;;1042761;28;19955;-76
2022/08/15 02:47:08;;;;;;;;;;;;;;;;;;1041813;28;19943;-76
2022/08/15 02:47:39;;;;;;;;;;;;;;;;;;1042833;28;20363;-76
2022/08/15 02:48:10;;;;;;;;;;;;;;;;;;1042616;28;19917;-76
2022/08/15 02:48:41;;;;;;;;;;;;;;;;;;1042208;28;19939;-76
2022/08/15 02:49:12;;;;;;;;;;;;;;;;;;1041756;28;20051;-76
2022/08/15 02:49:43;;;;;;;;;;;;;;;;;;1042035;28;20377;-76
2022/08/15 02:50:13;;;;;;;;;;;;;;;;;;1041930;28;20373;-76
2022/08/15 02:50:45;;;;;;;;;;;;;;;;;;1037581;28;19948;-76
2022/08/15 02:51:16;;;;;;;;;;;;;;;;;;1036976;28;20003;-76
2022/08/15 02:51:46;;;;;;;;;;;;;;;;;;1039420;28;19925;-76
2022/08/15 02:52:17;;;;;;;;;;;;;;;;;;1038187;28;19999;-76
2022/08/15 02:52:49;;;;;;;;;;;;;;;;;;1038603;28;20032;-76
2022/08/15 02:53:20;;;;;;;;;;;;;;;;;;1036710;28;20008;-76
2022/08/15 02:53:50;;;;;;;;;;;;;;;;;;1038373;28;20266;-76
2022/08/15 02:54:21;;;;;;;;;;;;;;;;;;1037918;28;19921;-76
2022/08/15 02:54:51;;;;;;;;;;;;;;;;;;1042541;28;19917;-76
2022/08/15 02:55:22;;;;;;;;;;;;;;;;;;1040442;28;20055;-76
2022/08/15 02:55:52;;;;;;;;;;;;;;;;;;1041572;28;19940;-76
2022/08/15 02:56:22;;;;;;;;;;;;;;;;;;1039736;28;20380;-76
2022/08/15 02:56:53;;;;;;;;;;;;;;;;;;1041651;28;19909;-76
2022/08/15 02:57:23;;;;;;;;;;;;;;;;;;1038938;28;19929;-76
2022/08/15 02:57:54;;;;;;;;;;;;;;;;;;1035572;28;19929;-76
2022/08/15 02:58:24;;;;;;;;;;;;;;;;;;1035157;28;20053;-76
2022/08/15 02:58:55;;;;;;;;;;;;;;;;;;1033878;28;19975;-76
2022/08/15 02:59:27;;;;;;;;;;;;;;;;;;1040214;28;19917;-76
2022/08/15 02:59:57;;;;;;;;;;;;;;;;;;1044986;28;19921;-76
2022/08/15 03:00:28;;;;;;;;;;;;;;;;;;1045720;28;19921;-76
2022/08/15 03:00:59;;;;;;;;;;;;;;;;;;1041234;28;20344;-76
2022/08/15 03:01:29;;;;;;;;;;;;;;;;;;1042211;28;19923;-76
2022/08/15 03:01:59;;;;;;;;;;;;;;;;;;1041449;28;19917;-76
2022/08/15 03:02:30;;;;;;;;;;;;;;;;;;1039279;28;20340;-76
2022/08/15 03:03:00;;;;;;;;;;;;;;;;;;1038108;28;19913;-76
2022/08/15 03:03:30;;;;;;;;;;;;;;;;;;1036510;28;19948;-76
2022/08/15 03:04:01;;;;;;;;;;;;;;;;;;1035227;28;20377;-76
2022/08/15 03:04:34;;;;;;;;;;;;;;;;;;1035082;28;20436;-77
2022/08/15 03:05:06;;;;;;;;;;;;;;;;;;1034519;28;19949;-76
2022/08/15 03:05:36;;;;;;;;;;;;;;;;;;1027796;28;19914;-76
2022/08/15 03:06:10;;;;;;;;;;;;;;;;;;1035137;28;20310;-76
2022/08/15 03:06:42;;;;;;;;;;;;;;;;;;1039416;28;19917;-76
2022/08/15 03:07:12;;;;;;;;;;;;;;;;;;1042454;28;20350;-76
2022/08/15 03:07:44;;;;;;;;;;;;;;;;;;1040362;28;19992;-76
2022/08/15 03:08:14;;;;;;;;;;;;;;;;;;1042046;28;20293;-76
2022/08/15 03:08:45;;;;;;;;;;;;;;;;;;1042605;28;20012;-76
2022/08/15 03:09:15;;;;;;;;;;;;;;;;;;1041370;28;19913;-76
2022/08/15 03:09:46;;;;;;;;;;;;;;;;;;1042595;28;19917;-76
2022/08/15 03:10:16;;;;;;;;;;;;;;;;;;1042033;28;20389;-76
2022/08/15 03:10:46;;;;;;;;;;;;;;;;;;1042913;28;19963;-76
2022/08/15 03:11:17;;;;;;;;;;;;;;;;;;1040254;28;19920;-76
2022/08/15 03:11:47;;;;;;;;;;;;;;;;;;1042791;28;19913;-76
2022/08/15 03:12:17;;;;;;;;;;;;;;;;;;1041339;28;20365;-76
2022/08/15 03:12:48;;;;;;;;;;;;;;;;;;1040750;28;20000;-76
2022/08/15 03:13:18;;;;;;;;;;;;;;;;;;1038657;28;19913;-76
2022/08/15 03:13:48;;;;;;;;;;;;;;;;;;1036566;28;19921;-76
2022/08/15 03:14:19;;;;;;;;;;;;;;;;;;1042888;28;19913;-76
2022/08/15 03:14:49;;;;;;;;;;;;;;;;;;1042203;28;19913;-76
2022/08/15 03:15:20;;;;;;;;;;;;;;;;;;1042021;28;19941;-76
2022/08/15 03:15:52;;;;;;;;;;;;;;;;;;1042856;28;20004;-76
2022/08/15 03:16:23;;;;;;;;;;;;;;;;;;1040862;28;19921;-76
2022/08/15 03:16:53;;;;;;;;;;;;;;;;;;1042914;28;19996;-76
2022/08/15 03:17:23;;;;;;;;;;;;;;;;;;1041544;28;20313;-76
2022/08/15 03:17:53;;;;;;;;;;;;;;;;;;1042431;28;19921;-76
2022/08/15 03:18:24;;;;;;;;;;;;;;;;;;1041938;28;19960;-76
2022/08/15 03:18:55;;;;;;;;;;;;;;;;;;1038735;28;19940;-76
2022/08/15 03:19:25;;;;;;;;;;;;;;;;;;1033719;28;20008;-76
2022/08/15 03:19:55;;;;;;;;;;;;;;;;;;1038448;28;19917;-76
2022/08/15 03:20:26;;;;;;;;;;;;;;;;;;1035925;28;19921;-76
2022/08/15 03:20:57;;;;;;;;;;;;;;;;;;1036775;28;19921;-76
2022/08/15 03:21:27;;;;;;;;;;;;;;;;;;1038757;28;19922;-76
2022/08/15 03:21:57;;;;;;;;;;;;;;;;;;1037506;28;20023;-76
2022/08/15 03:22:29;;;;;;;;;;;;;;;;;;1038217;28;19921;-76
2022/08/15 03:22:59;;;;;;;;;;;;;;;;;;1042437;28;19913;-76
2022/08/15 03:23:31;;;;;;;;;;;;;;;;;;1040923;28;20271;-76
2022/08/15 03:24:01;;;;;;;;;;;;;;;;;;1041779;28;19913;-76
2022/08/15 03:24:32;;;;;;;;;;;;;;;;;;1041897;28;19913;-76
2022/08/15 03:25:02;;;;;;;;;;;;;;;;;;1042005;28;20365;-76
2022/08/15 03:25:33;;;;;;;;;;;;;;;;;;1038036;28;19944;-76
2022/08/15 03:26:03;;;;;;;;;;;;;;;;;;1035407;28;19921;-76
2022/08/15 03:26:34;;;;;;;;;;;;;;;;;;1036252;28;19924;-76
2022/08/15 03:27:04;;;;;;;;;;;;;;;;;;1038156;28;20050;-76
2022/08/15 03:27:34;;;;;;;;;;;;;;;;;;1042783;28;19912;-76
2022/08/15 03:28:05;;;;;;;;;;;;;;;;;;1042560;28;19967;-76
2022/08/15 03:28:35;;;;;;;;;;;;;;;;;;1042291;28;19916;-76
2022/08/15 03:29:06;;;;;;;;;;;;;;;;;;1041111;28;19919;-76
2022/08/15 03:29:36;;;;;;;;;;;;;;;;;;1043510;28;20339;-76
2022/08/15 03:30:07;;;;;;;;;;;;;;;;;;1041008;28;19909;-76
2022/08/15 03:30:37;;;;;;;;;;;;;;;;;;1042708;28;19916;-76
2022/08/15 03:31:08;;;;;;;;;;;;;;;;;;1041536;28;19909;-76